createdAt,value
2018-06-02T00:00:26.588Z,103.65
2018-06-02T00:01:31.841Z,106.93
2018-06-02T00:02:35.951Z,86.85
2018-06-02T00:03:40.027Z,98.75
2018-06-02T00:04:44.922Z,105.65
2018-06-02T00:05:49.011Z,95.15
2018-06-02T00:06:53.123Z,108.37
2018-06-02T00:07:57.275Z,108.80
2018-06-02T00:09:01.941Z,99.22
2018-06-02T00:10:06.010Z,104.22
2018-06-02T00:11:10.160Z,95.82
2018-06-02T00:12:14.263Z,104.80
2018-06-02T00:13:18.384Z,102.22
2018-06-02T00:14:22.460Z,91.82
2018-06-02T00:15:26.543Z,115.35
2018-06-02T00:16:30.626Z,91.35
2018-06-02T00:17:34.687Z,110.65
2018-06-02T00:18:39.540Z,99.25
2018-06-02T00:19:43.580Z,98.05
2018-06-02T00:20:48.211Z,99.32
2018-06-02T00:21:52.599Z,110.90
2018-06-02T00:22:56.962Z,106.65
2018-06-02T00:24:01.296Z,99.80
2018-06-02T00:25:05.611Z,110.72
2018-06-02T00:26:10.211Z,113.12
2018-06-02T00:27:14.559Z,104.15
2018-06-02T00:28:18.920Z,109.25
2018-06-02T00:29:23.225Z,97.00
2018-06-02T00:30:28.298Z,104.03
2018-06-02T00:31:32.676Z,101.12
2018-06-02T00:32:36.851Z,110.88
2018-06-02T00:33:40.915Z,105.18
2018-06-02T00:34:45.006Z,101.03
2018-06-02T00:35:49.095Z,104.10
2018-06-02T00:36:53.177Z,110.60
2018-06-02T00:37:57.296Z,104.55
2018-06-02T00:39:01.694Z,111.32
2018-06-02T00:40:05.842Z,124.57
2018-06-02T00:41:09.915Z,94.70
2018-06-02T00:42:14.198Z,100.97
2018-06-02T00:43:18.290Z,100.55
2018-06-02T00:44:22.655Z,93.40
2018-06-02T00:45:26.719Z,99.00
2018-06-02T00:46:30.850Z,99.47
2018-06-02T00:47:35.721Z,100.32
2018-06-02T00:48:40.014Z,102.25
2018-06-02T00:49:44.863Z,101.47
2018-06-02T00:50:49.264Z,107.95
2018-06-02T00:51:53.831Z,103.47
2018-06-02T00:52:58.230Z,108.80
2018-06-02T00:54:02.565Z,109.28
2018-06-02T00:55:08.891Z,109.12
2018-06-02T00:56:13.174Z,110.28
2018-06-02T00:57:17.806Z,108.25
2018-06-02T00:58:22.107Z,108.68
2018-06-02T00:59:26.435Z,105.85
2018-06-02T01:00:30.763Z,104.90
2018-06-02T01:01:35.889Z,99.70
2018-06-02T01:02:41.048Z,104.00
2018-06-02T01:03:45.635Z,100.20
2018-06-02T01:04:50.713Z,103.32
2018-06-02T01:05:55.037Z,107.80
2018-06-02T01:06:59.447Z,101.00
2018-06-02T01:08:04.092Z,113.28
2018-06-02T01:09:09.011Z,110.10
2018-06-02T01:10:14.379Z,114.60
2018-06-02T01:11:18.723Z,119.45
2018-06-02T01:12:23.123Z,107.05
2018-06-02T01:13:27.536Z,108.60
2018-06-02T01:14:31.863Z,113.15
2018-06-02T01:15:36.226Z,102.15
2018-06-02T01:16:40.828Z,105.60
2018-06-02T01:17:45.145Z,103.87
2018-06-02T01:18:49.536Z,102.72
2018-06-02T01:19:54.720Z,109.37
2018-06-02T01:20:59.032Z,96.82
2018-06-02T01:22:03.347Z,105.55
2018-06-02T01:23:08.048Z,105.95
2018-06-02T01:24:12.610Z,101.50
2018-06-02T01:25:16.895Z,104.00
2018-06-02T01:26:21.956Z,104.38
2018-06-02T01:27:26.271Z,108.30
2018-06-02T01:28:30.963Z,115.65
2018-06-02T01:29:35.301Z,105.60
2018-06-02T01:30:39.421Z,103.53
2018-06-02T01:31:43.522Z,102.03
2018-06-02T01:32:47.622Z,107.80
2018-06-02T01:33:51.708Z,102.85
2018-06-02T01:34:55.818Z,103.60
2018-06-02T01:35:59.943Z,114.40
2018-06-02T01:37:04.028Z,105.87
2018-06-02T01:38:08.156Z,97.80
2018-06-02T01:39:12.270Z,102.43
2018-06-02T01:40:17.249Z,111.07
2018-06-02T01:41:21.352Z,107.87
2018-06-02T01:42:25.428Z,110.60
2018-06-02T01:43:29.550Z,121.28
2018-06-02T01:44:33.794Z,109.57
2018-06-02T01:45:37.939Z,117.25
2018-06-02T01:46:42.042Z,122.00
2018-06-02T01:47:46.213Z,107.80
2018-06-02T01:48:51.433Z,107.37
2018-06-02T01:49:55.587Z,106.22
2018-06-02T01:50:59.790Z,110.03
2018-06-02T01:52:04.111Z,105.57
2018-06-02T01:53:08.307Z,110.97
2018-06-02T01:54:12.718Z,112.25
2018-06-02T01:55:16.874Z,112.70
2018-06-02T01:56:20.983Z,98.62
2018-06-02T01:57:25.865Z,108.07
2018-06-02T01:58:30.027Z,112.85
2018-06-02T01:59:34.216Z,113.18
2018-06-02T02:00:39.221Z,119.75
2018-06-02T02:01:43.340Z,119.95
2018-06-02T02:02:48.203Z,106.90
2018-06-02T02:03:52.727Z,114.57
2018-06-02T02:04:57.017Z,118.65
2018-06-02T02:06:01.456Z,107.70
2018-06-02T02:07:05.891Z,126.28
2018-06-02T02:08:10.268Z,108.75
2018-06-02T02:09:14.650Z,113.50
2018-06-02T02:10:19.122Z,107.60
2018-06-02T02:11:23.542Z,106.63
2018-06-02T02:12:28.667Z,112.47
2018-06-02T02:13:33.824Z,104.80
2018-06-02T02:14:38.134Z,116.47
2018-06-02T02:15:42.504Z,122.87
2018-06-02T02:16:47.638Z,112.95
2018-06-02T02:17:52.765Z,110.20
2018-06-02T02:18:57.900Z,128.02
2018-06-02T02:20:03.029Z,112.97
2018-06-02T02:21:07.505Z,119.13
2018-06-02T02:22:11.948Z,111.05
2018-06-02T02:23:16.395Z,109.70
2018-06-02T02:24:20.922Z,120.22
2018-06-02T02:25:25.335Z,107.85
2018-06-02T02:26:29.736Z,114.62
2018-06-02T02:27:34.054Z,132.55
2018-06-02T02:28:38.449Z,130.87
2018-06-02T02:29:42.771Z,118.22
2018-06-02T02:30:47.107Z,122.45
2018-06-02T02:31:52.430Z,119.90
2018-06-02T02:33:36.517Z,125.30
2018-06-02T02:34:41.014Z,116.82
2018-06-02T02:35:45.591Z,119.68
2018-06-02T02:36:50.718Z,122.78
2018-06-02T02:37:54.821Z,109.00
2018-06-02T02:38:58.871Z,118.90
2018-06-02T02:40:03.223Z,118.30
2018-06-02T02:41:07.401Z,107.55
2018-06-02T02:42:11.651Z,108.40
2018-06-02T02:43:16.764Z,122.95
2018-06-02T02:44:20.868Z,102.35
2018-06-02T02:45:25.054Z,109.78
2018-06-02T02:46:29.110Z,122.35
2018-06-02T02:47:33.259Z,114.40
2018-06-02T02:48:37.646Z,109.28
2018-06-02T02:49:41.871Z,114.10
2018-06-02T02:50:46.215Z,105.53
2018-06-02T02:51:51.282Z,115.95
2018-06-02T02:52:55.573Z,105.70
2018-06-02T02:53:59.927Z,109.50
2018-06-02T02:55:04.223Z,106.72
2018-06-02T02:56:08.570Z,124.95
2018-06-02T02:57:13.609Z,106.25
2018-06-02T02:58:18.752Z,117.45
2018-06-02T02:59:23.079Z,116.93
2018-06-02T03:00:27.706Z,119.85
2018-06-02T03:01:32.112Z,119.15
2018-06-02T03:02:36.500Z,105.30
2018-06-02T03:03:40.948Z,106.35
2018-06-02T03:04:45.294Z,115.30
2018-06-02T03:05:49.671Z,118.07
2018-06-02T03:06:54.082Z,109.95
2018-06-02T03:07:58.388Z,120.32
2018-06-02T03:09:02.737Z,130.35
2018-06-02T03:10:07.864Z,121.15
2018-06-02T03:11:12.173Z,122.22
2018-06-02T03:12:16.463Z,114.10
2018-06-02T03:13:21.481Z,124.47
2018-06-02T03:14:26.570Z,120.15
2018-06-02T03:15:30.883Z,119.37
2018-06-02T03:16:34.938Z,104.90
2018-06-02T03:17:39.015Z,118.75
2018-06-02T03:18:43.914Z,123.95
2018-06-02T03:19:47.988Z,127.18
2018-06-02T03:20:52.072Z,115.80
2018-06-02T03:21:56.199Z,113.78
2018-06-02T03:23:00.278Z,122.13
2018-06-02T03:24:04.325Z,109.68
2018-06-02T03:25:08.397Z,114.20
2018-06-02T03:26:12.512Z,111.68
2018-06-02T03:27:16.578Z,136.30
2018-06-02T03:28:20.933Z,110.85
2018-06-02T03:29:25.247Z,121.07
2018-06-02T03:30:29.584Z,104.15
2018-06-02T03:31:34.649Z,121.43
2018-06-02T03:32:38.920Z,109.18
2018-06-02T03:33:43.282Z,109.97
2018-06-02T03:34:47.563Z,118.00
2018-06-02T03:35:51.968Z,122.37
2018-06-02T03:36:56.675Z,116.97
2018-06-02T03:38:01.199Z,122.13
2018-06-02T03:39:06.228Z,114.32
2018-06-02T03:40:10.531Z,121.75
2018-06-02T03:41:14.856Z,115.18
2018-06-02T03:42:19.150Z,106.82
2018-06-02T03:43:23.441Z,110.32
2018-06-02T03:44:27.878Z,106.15
2018-06-02T03:45:32.245Z,117.65
2018-06-02T03:46:36.567Z,111.22
2018-06-02T03:47:40.838Z,106.53
2018-06-02T03:48:45.920Z,113.00
2018-06-02T03:49:50.233Z,130.63
2018-06-02T03:50:54.556Z,117.78
2018-06-02T03:51:58.839Z,117.03
2018-06-02T03:53:03.409Z,111.22
2018-06-02T03:54:08.489Z,121.40
2018-06-02T03:55:12.773Z,112.72
2018-06-02T03:56:17.418Z,115.20
2018-06-02T03:57:21.697Z,121.70
2018-06-02T03:58:26.054Z,108.12
2018-06-02T03:59:31.052Z,123.80
2018-06-02T04:00:35.692Z,109.37
2018-06-02T04:01:40.110Z,120.10
2018-06-02T04:02:45.255Z,117.03
2018-06-02T04:03:50.299Z,120.05
2018-06-02T04:04:54.604Z,107.35
2018-06-02T04:05:58.918Z,118.07
2018-06-02T04:07:03.351Z,116.20
2018-06-02T04:08:07.643Z,114.20
2018-06-02T04:09:11.987Z,127.20
2018-06-02T04:10:16.689Z,121.25
2018-06-02T04:11:21.010Z,132.95
2018-06-02T04:12:25.335Z,119.97
2018-06-02T04:13:30.398Z,126.10
2018-06-02T04:14:34.885Z,122.62
2018-06-02T04:15:40.036Z,140.27
2018-06-02T04:16:44.477Z,127.85
2018-06-02T04:17:48.860Z,118.15
2018-06-02T04:18:53.258Z,127.80
2018-06-02T04:19:57.557Z,117.70
2018-06-02T04:21:01.839Z,130.05
2018-06-02T04:22:06.954Z,145.90
2018-06-02T04:23:11.109Z,140.30
2018-06-02T04:24:15.239Z,129.05
2018-06-02T04:25:19.352Z,130.02
2018-06-02T04:26:23.699Z,123.20
2018-06-02T04:27:28.580Z,131.73
2018-06-02T04:28:32.946Z,125.05
2018-06-02T04:29:37.135Z,136.10
2018-06-02T04:30:41.654Z,121.45
2018-06-02T04:31:46.085Z,126.53
2018-06-02T04:32:51.109Z,140.12
2018-06-02T04:33:55.394Z,129.93
2018-06-02T04:34:59.831Z,129.60
2018-06-02T04:36:03.918Z,147.62
2018-06-02T04:37:08.041Z,146.60
2018-06-02T04:38:12.211Z,145.85
2018-06-02T04:39:16.352Z,135.98
2018-06-02T04:40:20.506Z,142.45
2018-06-02T04:41:25.554Z,124.35
2018-06-02T04:42:29.998Z,138.07
2018-06-02T04:43:34.338Z,136.82
2018-06-02T04:44:39.716Z,139.57
2018-06-02T04:45:44.110Z,139.07
2018-06-02T04:46:48.393Z,144.95
2018-06-02T04:47:53.457Z,128.00
2018-06-02T04:48:57.807Z,136.10
2018-06-02T04:50:02.297Z,139.95
2018-06-02T04:51:06.859Z,134.45
2018-06-02T04:52:11.762Z,143.10
2018-06-02T04:53:15.871Z,147.68
2018-06-02T04:54:20.889Z,144.80
2018-06-02T04:55:24.924Z,139.10
2018-06-02T04:56:29.044Z,152.18
2018-06-02T04:57:33.407Z,149.32
2018-06-02T04:58:38.350Z,154.50
2018-06-02T04:59:42.794Z,149.02
2018-06-02T05:00:47.164Z,146.75
2018-06-02T05:01:51.514Z,153.45
2018-06-02T05:02:55.837Z,155.75
2018-06-02T05:04:00.439Z,156.05
2018-06-02T05:05:04.794Z,152.38
2018-06-02T05:06:09.847Z,147.85
2018-06-02T05:07:14.134Z,159.75
2018-06-02T05:08:18.445Z,157.32
2018-06-02T05:09:23.018Z,151.93
2018-06-02T05:10:27.325Z,146.25
2018-06-02T05:11:31.648Z,161.12
2018-06-02T05:12:36.716Z,152.68
2018-06-02T05:13:40.903Z,158.50
2018-06-02T05:14:44.997Z,146.27
2018-06-02T05:15:50.130Z,149.95
2018-06-02T05:16:54.950Z,159.52
2018-06-02T05:17:59.004Z,165.35
2018-06-02T05:19:03.425Z,158.48
2018-06-02T05:20:07.758Z,152.30
2018-06-02T05:21:13.137Z,138.10
2018-06-02T05:22:17.466Z,117.15
2018-06-02T05:23:21.826Z,127.22
2018-06-02T05:24:26.132Z,109.10
2018-06-02T05:25:30.515Z,112.95
2018-06-02T05:26:35.662Z,102.82
2018-06-02T05:27:40.091Z,101.97
2018-06-02T05:28:44.171Z,109.12
2018-06-02T05:29:48.270Z,104.47
2018-06-02T05:30:53.101Z,97.60
2018-06-02T05:31:57.417Z,108.18
2018-06-02T05:33:01.770Z,95.18
2018-06-02T05:34:06.527Z,104.40
2018-06-02T05:35:11.572Z,113.95
2018-06-02T05:36:15.949Z,100.80
2018-06-02T05:37:20.919Z,111.57
2018-06-02T05:38:25.007Z,99.00
2018-06-02T05:39:29.345Z,111.20
2018-06-02T05:40:33.448Z,98.28
2018-06-02T05:41:37.523Z,92.00
2018-06-02T05:42:41.566Z,99.65
2018-06-02T05:43:45.650Z,90.57
2018-06-02T05:44:49.887Z,90.57
2018-06-02T05:45:55.180Z,102.05
2018-06-02T05:46:59.457Z,94.75
2018-06-02T05:48:03.766Z,80.82
2018-06-02T05:49:08.083Z,97.30
2018-06-02T05:50:12.355Z,82.97
2018-06-02T05:51:17.441Z,89.87
2018-06-02T05:52:22.024Z,84.45
2018-06-02T05:53:26.330Z,84.80
2018-06-02T05:54:30.613Z,94.25
2018-06-02T05:55:34.906Z,85.18
2018-06-02T05:56:39.765Z,73.22
2018-06-02T05:57:44.098Z,80.82
2018-06-02T05:58:48.178Z,79.40
2018-06-02T05:59:52.297Z,73.87
2018-06-02T06:00:57.362Z,74.28
2018-06-02T06:02:02.178Z,74.97
2018-06-02T06:03:06.202Z,70.45
2018-06-02T06:04:10.514Z,60.05
2018-06-02T06:05:14.544Z,64.53
2018-06-02T06:06:18.692Z,59.50
2018-06-02T06:07:23.576Z,65.12
2018-06-02T06:08:27.679Z,59.90
2018-06-02T06:09:31.744Z,63.75
2018-06-02T06:10:36.118Z,59.70
2018-06-02T06:11:40.157Z,64.47
2018-06-02T06:12:44.244Z,55.45
2018-06-02T06:13:48.345Z,62.28
2018-06-02T06:14:53.168Z,61.13
2018-06-02T06:15:57.220Z,60.03
2018-06-02T06:17:01.554Z,60.22
2018-06-02T06:18:05.659Z,67.03
2018-06-02T06:19:09.761Z,60.55
2018-06-02T06:20:14.098Z,55.20
2018-06-02T06:21:18.391Z,51.70
2018-06-02T06:22:23.501Z,51.53
2018-06-02T06:23:28.052Z,54.60
2018-06-02T06:24:32.344Z,47.15
2018-06-02T06:25:36.644Z,45.90
2018-06-02T06:26:41.744Z,54.05
2018-06-02T06:27:46.019Z,50.17
2018-06-02T06:28:50.360Z,43.00
2018-06-02T06:29:54.627Z,39.95
2018-06-02T06:30:58.926Z,44.65
2018-06-02T06:32:03.222Z,44.70
2018-06-02T06:33:07.682Z,40.25
2018-06-02T06:34:11.832Z,52.25
2018-06-02T06:35:16.192Z,48.42
2018-06-02T06:36:20.349Z,43.58
2018-06-02T06:37:24.375Z,43.90
2018-06-02T06:38:29.051Z,44.88
2018-06-02T06:39:34.103Z,42.05
2018-06-02T06:40:38.401Z,39.30
2018-06-02T06:41:43.026Z,45.47
2018-06-02T06:42:47.303Z,46.65
2018-06-02T06:43:52.360Z,46.40
2018-06-02T06:44:56.676Z,47.38
2018-06-02T06:46:00.982Z,46.70
2018-06-02T06:47:05.270Z,42.58
2018-06-02T06:48:09.571Z,45.35
2018-06-02T06:49:13.887Z,40.45
2018-06-02T06:50:18.189Z,43.55
2018-06-02T06:51:22.615Z,40.80
2018-06-02T06:52:26.966Z,47.05
2018-06-02T06:53:31.566Z,42.05
2018-06-02T06:54:35.859Z,40.65
2018-06-02T06:55:40.161Z,37.75
2018-06-02T06:58:02.838Z,39.72
2018-06-02T06:59:07.914Z,41.50
2018-06-02T07:00:12.238Z,45.17
2018-06-02T07:01:16.447Z,36.38
2018-06-02T07:02:20.525Z,48.33
2018-06-02T07:03:24.623Z,44.13
2018-06-02T07:04:28.819Z,41.40
2018-06-02T07:05:32.968Z,38.00
2018-06-02T07:06:37.187Z,41.22
2018-06-02T07:07:41.376Z,39.83
2018-06-02T07:08:45.385Z,42.38
2018-06-02T07:09:50.209Z,37.28
2018-06-02T07:10:54.299Z,43.33
2018-06-02T07:11:58.458Z,40.58
2018-06-02T07:13:02.493Z,37.85
2018-06-02T07:14:06.563Z,43.67
2018-06-02T07:15:10.607Z,39.90
2018-06-02T07:16:14.673Z,43.03
2018-06-02T07:17:18.852Z,47.62
2018-06-02T07:18:23.746Z,35.25
2018-06-02T07:19:28.136Z,39.72
2018-06-02T07:20:32.447Z,39.17
2018-06-02T07:21:36.751Z,38.58
2018-06-02T07:22:41.061Z,43.47
2018-06-02T07:23:45.772Z,32.38
2018-06-02T07:24:50.170Z,40.70
2018-06-02T07:25:55.094Z,33.13
2018-06-02T07:26:59.174Z,35.50
2018-06-02T07:28:03.246Z,34.15
2018-06-02T07:29:08.095Z,33.92
2018-06-02T07:30:12.460Z,38.00
2018-06-02T07:31:16.573Z,38.38
2018-06-02T07:32:20.642Z,33.50
2018-06-02T07:33:25.438Z,43.45
2018-06-02T07:34:29.631Z,38.95
2018-06-02T07:35:33.747Z,31.12
2018-06-02T07:36:37.827Z,35.30
2018-06-02T07:37:41.849Z,35.05
2018-06-02T07:38:45.898Z,43.75
2018-06-02T07:39:50.162Z,33.40
2018-06-02T07:40:54.773Z,43.38
2018-06-02T07:41:59.080Z,41.97
2018-06-02T07:43:03.391Z,33.65
2018-06-02T07:44:07.654Z,39.20
2018-06-02T07:45:12.705Z,30.70
2018-06-02T07:46:16.990Z,35.03
2018-06-02T07:47:22.171Z,31.25
2018-06-02T07:48:26.662Z,37.17
2018-06-02T07:49:31.039Z,31.83
2018-06-02T07:50:36.097Z,33.22
2018-06-02T07:51:40.402Z,32.13
2018-06-02T07:52:44.714Z,35.38
2018-06-02T07:53:48.988Z,36.78
2018-06-02T07:54:54.025Z,37.22
2018-06-02T07:55:58.331Z,37.20
2018-06-02T07:57:02.605Z,32.50
2018-06-02T07:58:06.646Z,35.72
2018-06-02T07:59:10.688Z,33.90
2018-06-02T08:00:14.730Z,28.50
2018-06-02T08:01:19.511Z,32.85
2018-06-02T08:02:23.569Z,34.97
2018-06-02T08:03:28.445Z,34.85
2018-06-02T08:04:32.521Z,33.42
2018-06-02T08:05:36.581Z,33.83
2018-06-02T08:06:40.654Z,37.95
2018-06-02T08:07:45.107Z,36.83
2018-06-02T08:08:49.159Z,38.08
2018-06-02T08:09:53.203Z,32.72
2018-06-02T08:14:07.706Z,28.10
2018-06-02T08:15:11.799Z,28.05
2018-06-02T08:16:15.852Z,29.55
2018-06-02T08:17:20.657Z,25.45
2018-06-02T08:18:25.522Z,30.75
2018-06-02T08:19:29.681Z,33.90
2018-06-02T08:20:33.893Z,30.15
2018-06-02T08:21:38.715Z,34.05
2018-06-02T08:22:43.547Z,28.10
2018-06-02T08:23:47.603Z,27.75
2018-06-02T08:24:51.773Z,22.83
2018-06-02T08:25:56.139Z,23.60
2018-06-02T08:27:00.206Z,22.80
2018-06-02T08:28:04.242Z,28.12
2018-06-02T08:29:09.064Z,23.73
2018-06-02T08:30:13.868Z,32.47
2018-06-02T08:31:18.174Z,27.05
2018-06-02T08:32:22.279Z,30.20
2018-06-02T08:33:27.255Z,26.62
2018-06-02T08:34:31.317Z,25.02
2018-06-02T08:35:36.115Z,23.95
2018-06-02T08:36:40.219Z,23.60
2018-06-02T08:37:44.350Z,27.55
2018-06-02T08:38:49.218Z,26.80
2018-06-02T08:39:53.304Z,26.98
2018-06-02T08:40:57.369Z,22.90
2018-06-02T08:42:02.213Z,20.95
2018-06-02T08:43:06.510Z,23.75
2018-06-02T08:44:11.105Z,21.55
2018-06-02T08:45:16.182Z,20.88
2018-06-02T08:46:20.519Z,23.30
2018-06-02T08:47:24.835Z,21.30
2018-06-02T08:48:29.136Z,22.40
2018-06-02T08:49:33.734Z,22.62
2018-06-02T08:50:38.018Z,26.30
2018-06-02T08:51:42.314Z,25.00
2018-06-02T08:52:46.350Z,21.77
2018-06-02T08:53:50.419Z,25.02
2018-06-02T08:54:54.461Z,22.35
2018-06-02T08:55:58.517Z,24.30
2018-06-02T08:57:02.571Z,26.08
2018-06-02T08:58:07.491Z,22.95
2018-06-02T08:59:11.539Z,21.37
2018-06-02T09:00:15.652Z,26.42
2018-06-02T09:01:19.710Z,25.85
2018-06-02T09:02:24.273Z,26.27
2018-06-02T09:03:28.565Z,21.15
2018-06-02T09:04:32.836Z,24.67
2018-06-02T09:05:37.111Z,28.10
2018-06-02T09:06:41.375Z,23.20
2018-06-02T09:07:45.658Z,23.80
2018-06-02T09:08:50.990Z,27.87
2018-06-02T09:09:56.039Z,31.92
2018-06-02T09:11:00.374Z,22.73
2018-06-02T09:12:04.696Z,20.60
2018-06-02T09:13:08.987Z,21.75
2018-06-02T09:14:13.275Z,18.95
2018-06-02T09:15:17.888Z,18.65
2018-06-02T09:16:22.300Z,23.08
2018-06-02T09:17:26.688Z,16.90
2018-06-02T09:18:31.823Z,16.05
2018-06-02T09:19:36.162Z,19.42
2018-06-02T09:20:40.252Z,20.00
2018-06-02T09:21:44.697Z,19.00
2018-06-02T09:22:49.175Z,19.58
2018-06-02T09:23:53.270Z,21.02
2018-06-02T09:24:58.126Z,19.37
2018-06-02T09:26:02.190Z,16.00
2018-06-02T09:27:06.292Z,23.27
2018-06-02T09:28:10.672Z,28.10
2018-06-02T09:29:15.659Z,29.80
2018-06-02T09:30:19.994Z,33.53
2018-06-02T09:31:24.859Z,22.62
2018-06-02T09:32:29.168Z,19.10
2018-06-02T09:33:33.345Z,17.70
2018-06-02T09:34:38.494Z,14.23
2018-06-02T09:35:42.565Z,15.73
2018-06-02T09:36:47.468Z,17.83
2018-06-02T09:37:51.564Z,13.82
2018-06-02T09:38:55.638Z,19.42
2018-06-02T09:39:59.964Z,14.32
2018-06-02T09:41:04.275Z,15.38
2018-06-02T09:42:09.414Z,16.02
2018-06-02T09:43:13.711Z,19.05
2018-06-02T09:44:18.062Z,17.33
2018-06-02T09:45:22.348Z,13.40
2018-06-02T09:46:27.475Z,16.83
2018-06-02T09:47:32.651Z,13.48
2018-06-02T09:48:37.620Z,12.32
2018-06-02T09:49:41.770Z,13.27
2018-06-02T09:50:45.855Z,11.07
2018-06-02T09:51:49.956Z,11.20
2018-06-02T09:52:54.227Z,13.38
2018-06-02T09:53:58.631Z,14.00
2018-06-02T09:55:02.755Z,13.30
2018-06-02T09:56:07.635Z,16.85
2018-06-02T09:57:11.700Z,16.52
2018-06-02T09:58:16.070Z,15.30
2018-06-02T09:59:20.411Z,12.93
2018-06-02T10:00:25.943Z,14.25
2018-06-02T10:01:31.049Z,14.93
2018-06-02T10:02:36.123Z,11.63
2018-06-02T10:03:40.504Z,18.73
2018-06-02T10:04:45.716Z,14.35
2018-06-02T10:05:50.131Z,13.85
2018-06-02T10:06:55.523Z,14.15
2018-06-02T10:07:59.663Z,15.85
2018-06-02T10:09:04.015Z,14.90
2018-06-02T10:10:08.156Z,14.77
2018-06-02T10:11:12.351Z,19.52
2018-06-02T10:12:16.487Z,17.62
2018-06-02T10:13:21.784Z,14.55
2018-06-02T10:14:26.103Z,14.90
2018-06-02T10:15:30.264Z,14.20
2018-06-02T10:16:34.636Z,16.95
2018-06-02T10:17:39.590Z,18.20
2018-06-02T10:18:43.770Z,17.33
2018-06-02T10:19:48.171Z,16.50
2018-06-02T10:20:53.337Z,17.92
2018-06-02T10:21:57.674Z,15.35
2018-06-02T10:23:02.018Z,13.70
2018-06-02T10:24:07.207Z,13.15
2018-06-02T10:25:11.528Z,12.60
2018-06-02T10:26:15.882Z,12.70
2018-06-02T10:27:20.308Z,12.82
2018-06-02T10:28:24.626Z,14.20
2018-06-02T10:29:28.948Z,11.07
2018-06-02T10:30:33.408Z,18.30
2018-06-02T10:31:37.742Z,10.88
2018-06-02T10:32:42.069Z,11.20
2018-06-02T10:33:46.471Z,11.60
2018-06-02T10:34:50.796Z,9.90
2018-06-02T10:35:55.185Z,12.35
2018-06-02T10:36:59.359Z,12.73
2018-06-02T10:38:03.787Z,12.20
2018-06-02T10:39:07.990Z,12.00
2018-06-02T10:40:12.308Z,13.20
2018-06-02T10:41:16.466Z,10.20
2018-06-02T10:42:21.755Z,12.32
2018-06-02T10:43:26.135Z,12.73
2018-06-02T10:44:30.227Z,18.30
2018-06-02T10:45:34.522Z,14.45
2018-06-02T10:46:39.359Z,14.65
2018-06-02T10:47:43.613Z,14.77
2018-06-02T10:48:47.677Z,11.25
2018-06-02T10:49:51.828Z,9.63
2018-06-02T10:50:56.019Z,12.75
2018-06-02T10:52:00.565Z,10.88
2018-06-02T10:53:05.842Z,12.25
2018-06-02T10:54:10.368Z,11.65
2018-06-02T10:55:16.172Z,12.88
2018-06-02T10:56:20.766Z,15.98
2018-06-02T10:57:25.792Z,11.35
2018-06-02T10:58:30.291Z,10.90
2018-06-02T10:59:35.407Z,12.98
2018-06-02T11:00:39.535Z,13.38
2018-06-02T11:01:44.559Z,10.40
2018-06-02T11:02:48.694Z,12.02
2018-06-02T11:03:53.145Z,12.27
2018-06-02T11:04:57.498Z,10.23
2018-06-02T11:06:01.634Z,22.52
2018-06-02T11:07:05.990Z,10.40
2018-06-02T11:08:11.136Z,13.48
2018-06-02T11:09:15.407Z,14.15
2018-06-02T11:10:20.203Z,9.73
2018-06-02T11:11:24.597Z,9.02
2018-06-02T11:12:28.894Z,9.30
2018-06-02T11:13:33.238Z,8.55
2018-06-02T11:14:37.618Z,10.25
2018-06-02T11:15:42.141Z,10.30
2018-06-02T11:16:46.877Z,19.02
2018-06-02T11:17:51.192Z,20.08
2018-06-02T11:18:56.331Z,11.70
2018-06-02T11:20:01.465Z,16.50
2018-06-02T11:21:06.722Z,18.73
2018-06-02T11:22:11.323Z,19.55
2018-06-02T11:23:16.438Z,14.52
2018-06-02T11:24:21.522Z,15.52
2018-06-02T11:25:25.857Z,14.07
2018-06-02T11:26:30.719Z,15.65
2018-06-02T11:27:34.850Z,16.92
2018-06-02T11:28:39.448Z,21.48
2018-06-02T11:29:43.603Z,67.35
2018-06-02T11:30:48.524Z,17.67
2018-06-02T11:31:53.426Z,27.90
2018-06-02T11:32:57.545Z,16.00
2018-06-02T11:34:01.660Z,165.27
2018-06-02T11:35:06.186Z,33.00
2018-06-02T11:36:11.176Z,18.75
2018-06-02T11:37:16.058Z,19.48
2018-06-02T11:38:20.254Z,11.63
2018-06-02T11:39:24.363Z,17.23
2018-06-02T11:40:28.527Z,28.23
2018-06-02T11:41:33.750Z,60.78
2018-06-02T11:42:38.576Z,37.13
2018-06-02T11:43:43.711Z,35.47
2018-06-02T11:44:48.089Z,31.40
2018-06-02T11:45:52.558Z,24.67
2018-06-02T11:46:56.866Z,17.40
2018-06-02T11:48:01.492Z,60.45
2018-06-02T11:49:05.640Z,62.10
2018-06-02T11:50:10.496Z,57.22
2018-06-02T11:51:14.574Z,94.43
2018-06-02T11:52:18.967Z,60.45
2018-06-02T11:53:24.187Z,69.50
2018-06-02T11:54:29.031Z,31.25
2018-06-02T11:55:33.930Z,17.77
2018-06-02T11:56:38.236Z,12.95
2018-06-02T11:57:43.171Z,11.20
2018-06-02T11:58:48.034Z,17.98
2018-06-02T11:59:52.175Z,14.65
2018-06-02T12:00:56.283Z,32.67
2018-06-02T12:02:01.199Z,34.15
2018-06-02T12:03:05.320Z,22.85
2018-06-02T12:04:10.153Z,23.12
2018-06-02T12:05:14.193Z,69.95
2018-06-02T12:06:18.273Z,49.60
2018-06-02T12:07:22.635Z,16.90
2018-06-02T12:08:27.829Z,51.37
2018-06-02T12:09:32.922Z,174.15
2018-06-02T12:10:37.215Z,31.65
2018-06-02T12:11:42.262Z,23.38
2018-06-02T12:12:46.319Z,11.80
2018-06-02T12:13:50.740Z,24.80
2018-06-02T12:14:55.614Z,14.15
2018-06-02T12:15:59.682Z,10.73
2018-06-02T12:17:04.614Z,23.48
2018-06-02T12:18:08.722Z,22.37
2018-06-02T12:19:12.802Z,20.45
2018-06-02T12:20:17.910Z,22.77
2018-06-02T12:21:21.950Z,27.10
2018-06-02T12:22:26.049Z,29.02
2018-06-02T12:23:30.153Z,28.12
2018-06-02T12:24:34.265Z,24.98
2018-06-02T12:25:38.375Z,25.98
2018-06-02T12:26:42.736Z,18.55
2018-06-02T12:27:47.547Z,25.85
2018-06-02T12:28:51.736Z,11.35
2018-06-02T12:29:55.794Z,23.00
2018-06-02T12:31:00.051Z,8.35
2018-06-02T12:32:04.371Z,39.40
2018-06-02T12:33:08.950Z,16.67
2018-06-02T12:34:13.267Z,75.47
2018-06-02T12:35:17.675Z,45.85
2018-06-02T12:36:22.003Z,52.65
2018-06-02T12:37:26.297Z,9.43
2018-06-02T12:38:30.567Z,14.10
2018-06-02T12:39:35.122Z,16.08
2018-06-02T12:40:39.445Z,9.85
2018-06-02T12:41:43.867Z,13.68
2018-06-02T12:42:49.023Z,10.32
2018-06-02T12:43:53.329Z,12.70
2018-06-02T12:44:57.714Z,12.70
2018-06-02T12:46:02.559Z,8.20
2018-06-02T12:47:06.634Z,12.37
2018-06-02T12:48:11.529Z,9.30
2018-06-02T12:49:15.570Z,9.30
2018-06-02T12:50:19.632Z,5.53
2018-06-02T12:51:23.734Z,31.65
2018-06-02T12:52:27.787Z,14.10
2018-06-02T12:53:31.854Z,5.53
2018-06-02T12:54:36.959Z,8.32
2018-06-02T12:55:41.278Z,6.07
2018-06-02T12:56:46.338Z,7.07
2018-06-02T12:57:50.727Z,5.45
2018-06-02T12:58:56.051Z,8.50
2018-06-02T13:00:01.131Z,17.27
2018-06-02T13:01:05.515Z,6.30
2018-06-02T13:02:09.814Z,10.23
2018-06-02T13:03:14.126Z,113.62
2018-06-02T13:04:18.945Z,16.42
2018-06-02T13:05:24.100Z,7.40
2018-06-02T13:06:28.218Z,7.03
2018-06-02T13:07:32.288Z,6.40
2018-06-02T13:08:36.348Z,6.12
2018-06-02T13:09:40.412Z,6.10
2018-06-02T13:10:44.747Z,5.57
2018-06-02T13:11:49.316Z,12.32
2018-06-02T13:12:53.690Z,3.92
2018-06-02T13:13:58.737Z,6.47
2018-06-02T13:15:03.058Z,9.80
2018-06-02T13:16:07.150Z,8.23
2018-06-02T13:17:11.169Z,5.93
2018-06-02T13:18:15.570Z,9.93
2018-06-02T13:19:19.664Z,11.43
2018-06-02T13:20:24.225Z,7.85
2018-06-02T13:21:28.288Z,11.32
2018-06-02T13:22:32.575Z,5.57
2018-06-02T13:23:36.890Z,6.45
2018-06-02T13:24:41.029Z,34.03
2018-06-02T13:25:46.231Z,9.23
2018-06-02T13:26:50.543Z,11.48
2018-06-02T13:27:54.847Z,7.50
2018-06-02T13:30:01.852Z,9.20
2018-06-02T13:31:06.182Z,6.45
2018-06-02T13:32:11.215Z,53.05
2018-06-02T13:33:16.275Z,14.27
2018-06-02T13:34:20.610Z,20.45
2018-06-02T13:35:26.134Z,7.47
2018-06-02T13:36:30.470Z,7.07
2018-06-02T13:37:34.791Z,12.98
2018-06-02T13:38:39.122Z,10.45
2018-06-02T13:39:43.340Z,7.32
2018-06-02T13:40:47.775Z,38.22
2018-06-02T13:41:52.344Z,72.53
2018-06-02T13:42:57.446Z,111.53
2018-06-02T13:44:01.523Z,13.25
2018-06-02T13:45:05.581Z,7.60
2018-06-02T13:46:09.630Z,12.15
2018-06-02T13:47:13.811Z,7.70